Terminal Aerodrome Forecast
Issued by NWS

Home | Current Version | Previous Version | Text Only | Print | Product List | Glossary On
Versions: 1 2 3 4 5 6 7 8 9 10 11 12 13 14 15 16 17
000
FTUS46 KSTO 262300
TAFSCK
TAF
KSCK 262331Z 2700/2724 VRB03KT P6SM SCT250
     FM270600 00000KT 5SM BR BKN250
      TEMPO 2712/2716 1/4SM FG VV001
     FM272000 VRB03KT 5SM HZ BKN250=

USA.gov is the U.S. government's official web portal to all federal, state and local government web resources and services.